Terminal Aerodrome Forecast
Issued by NWS

Home | Current Version | Previous Version | Text Only | Print | Product List | Glossary On
Versions: 1 2 3 4 5 6 7 8 9 10 11 12 13 14 15 16 17 18 19 20 21
384
FTUS46 KMTR 300520
TAFMRY
TAF
KMRY 300520Z 3006/3106 24004KT 1/2SM FG VV002
     FM301700 29005KT 6SM HZ FU SCT005 BKN120
     FM310300 24004KT 4SM HZ BR OVC007=

USA.gov is the U.S. government's official web portal to all federal, state and local government web resources and services.